sensor_id;sensor_type;location;lat;lon;timestamp;temperature;humidity
66582;SHT31;53438;48.898;2.308;2023-06-04T03:01:05;17.20;51.14
66582;SHT31;53438;48.898;2.308;2023-06-04T03:03:32;17.28;50.97
66582;SHT31;53438;48.898;2.308;2023-06-04T03:05:58;17.03;51.78
66582;SHT31;53438;48.898;2.308;2023-06-04T03:08:25;17.03;51.66
66582;SHT31;53438;48.898;2.308;2023-06-04T03:10:50;17.12;51.55
66582;SHT31;53438;48.898;2.308;2023-06-04T03:13:16;17.14;51.50
66582;SHT31;53438;48.898;2.308;2023-06-04T03:15:41;17.08;51.62
66582;SHT31;53438;48.898;2.308;2023-06-04T03:18:06;17.22;51.18
66582;SHT31;53438;48.898;2.308;2023-06-04T03:20:32;17.24;51.19
66582;SHT31;53438;48.898;2.308;2023-06-04T03:23:03;17.29;50.82
66582;SHT31;53438;48.898;2.308;2023-06-04T03:25:28;17.12;51.30
66582;SHT31;53438;48.898;2.308;2023-06-04T03:27:53;17.17;51.01
66582;SHT31;53438;48.898;2.308;2023-06-04T03:30:19;17.21;51.07
66582;SHT31;53438;48.898;2.308;2023-06-04T03:32:44;16.92;51.51
66582;SHT31;53438;48.898;2.308;2023-06-04T03:35:10;17.06;51.21
66582;SHT31;53438;48.898;2.308;2023-06-04T03:37:35;17.06;51.36
66582;SHT31;53438;48.898;2.308;2023-06-04T03:40:01;17.07;51.19
66582;SHT31;53438;48.898;2.308;2023-06-04T03:42:31;16.92;51.73
66582;SHT31;53438;48.898;2.308;2023-06-04T03:44:56;17.08;51.16
66582;SHT31;53438;48.898;2.308;2023-06-04T03:47:23;17.34;50.51
66582;SHT31;53438;48.898;2.308;2023-06-04T03:49:48;17.25;50.40
66582;SHT31;53438;48.898;2.308;2023-06-04T03:52:13;16.85;51.39
66582;SHT31;53438;48.898;2.308;2023-06-04T03:54:39;17.07;51.06
66582;SHT31;53438;48.898;2.308;2023-06-04T03:57:04;16.95;51.13
66582;SHT31;53438;48.898;2.308;2023-06-04T03:59:30;16.61;51.85
66582;SHT31;53438;48.898;2.308;2023-06-04T04:01:55;16.71;51.62
66582;SHT31;53438;48.898;2.308;2023-06-04T04:04:21;16.94;50.87
66582;SHT31;53438;48.898;2.308;2023-06-04T04:06:47;17.00;50.95
66582;SHT31;53438;48.898;2.308;2023-06-04T04:09:13;16.83;51.26
66582;SHT31;53438;48.898;2.308;2023-06-04T04:11:38;16.83;51.16
66582;SHT31;53438;48.898;2.308;2023-06-04T04:14:03;16.79;51.44
66582;SHT31;53438;48.898;2.308;2023-06-04T04:16:29;16.83;51.15
66582;SHT31;53438;48.898;2.308;2023-06-04T04:18:55;16.85;51.13
66582;SHT31;53438;48.898;2.308;2023-06-04T04:21:20;16.85;50.96
66582;SHT31;53438;48.898;2.308;2023-06-04T04:23:46;16.81;51.07
66582;SHT31;53438;48.898;2.308;2023-06-04T04:26:11;16.69;51.30
66582;SHT31;53438;48.898;2.308;2023-06-04T04:28:41;16.67;51.36
66582;SHT31;53438;48.898;2.308;2023-06-04T04:31:07;16.66;51.57
66582;SHT31;53438;48.898;2.308;2023-06-04T04:33:35;16.49;51.62
66582;SHT31;53438;48.898;2.308;2023-06-04T04:36:05;16.59;51.47
66582;SHT31;53438;48.898;2.308;2023-06-04T04:38:34;16.43;52.03
66582;SHT31;53438;48.898;2.308;2023-06-04T04:41:00;16.53;51.72
66582;SHT31;53438;48.898;2.308;2023-06-04T04:45:55;16.76;51.17
66582;SHT31;53438;48.898;2.308;2023-06-04T04:48:21;16.64;51.21
66582;SHT31;53438;48.898;2.308;2023-06-04T04:50:46;16.64;51.45
66582;SHT31;53438;48.898;2.308;2023-06-04T04:53:11;16.61;51.33
66582;SHT31;53438;48.898;2.308;2023-06-04T04:55:37;16.64;51.39
66582;SHT31;53438;48.898;2.308;2023-06-04T04:58:02;16.83;50.99
66582;SHT31;53438;48.898;2.308;2023-06-04T05:00:29;16.61;51.04
66582;SHT31;53438;48.898;2.308;2023-06-04T05:02:55;16.19;52.30
66582;SHT31;53438;48.898;2.308;2023-06-04T05:05:20;16.53;51.44
66582;SHT31;53438;48.898;2.308;2023-06-04T05:07:45;16.42;51.64
66582;SHT31;53438;48.898;2.308;2023-06-04T05:10:10;16.48;51.35
66582;SHT31;53438;48.898;2.308;2023-06-04T05:12:36;16.38;51.77
66582;SHT31;53438;48.898;2.308;2023-06-04T05:15:01;16.60;51.30
66582;SHT31;53438;48.898;2.308;2023-06-04T05:17:28;16.52;51.38
66582;SHT31;53438;48.898;2.308;2023-06-04T05:19:56;16.33;51.64
66582;SHT31;53438;48.898;2.308;2023-06-04T05:22:30;16.32;51.69
66582;SHT31;53438;48.898;2.308;2023-06-04T05:24:57;16.38;51.73
66582;SHT31;53438;48.898;2.308;2023-06-04T05:27:24;16.61;51.35
66582;SHT31;53438;48.898;2.308;2023-06-04T05:29:49;16.56;51.18
66582;SHT31;53438;48.898;2.308;2023-06-04T05:32:15;16.74;50.97
66582;SHT31;53438;48.898;2.308;2023-06-04T05:34:41;16.63;51.13
66582;SHT31;53438;48.898;2.308;2023-06-04T05:37:07;16.63;51.02
66582;SHT31;53438;48.898;2.308;2023-06-04T05:39:33;16.81;50.68
66582;SHT31;53438;48.898;2.308;2023-06-04T05:42:00;16.88;50.54
66582;SHT31;53438;48.898;2.308;2023-06-04T05:44:25;16.67;50.54
66582;SHT31;53438;48.898;2.308;2023-06-04T05:46:50;16.84;50.69
66582;SHT31;53438;48.898;2.308;2023-06-04T05:49:16;16.83;50.66
66582;SHT31;53438;48.898;2.308;2023-06-04T05:51:42;16.92;50.39
66582;SHT31;53438;48.898;2.308;2023-06-04T05:54:07;17.08;50.16
66582;SHT31;53438;48.898;2.308;2023-06-04T05:56:32;17.07;50.16
66582;SHT31;53438;48.898;2.308;2023-06-04T05:58:58;17.27;49.78
66582;SHT31;53438;48.898;2.308;2023-06-04T06:01:23;17.34;49.51
66582;SHT31;53438;48.898;2.308;2023-06-04T06:03:48;17.42;49.42
66582;SHT31;53438;48.898;2.308;2023-06-04T06:06:14;17.48;49.34
66582;SHT31;53438;48.898;2.308;2023-06-04T06:08:39;17.36;49.51
66582;SHT31;53438;48.898;2.308;2023-06-04T06:11:05;17.49;49.05
66582;SHT31;53438;48.898;2.308;2023-06-04T06:13:30;17.49;48.92
66582;SHT31;53438;48.898;2.308;2023-06-04T06:15:56;17.78;48.45
66582;SHT31;53438;48.898;2.308;2023-06-04T06:18:22;17.86;48.07
66582;SHT31;53438;48.898;2.308;2023-06-04T06:20:47;17.70;48.53
66582;SHT31;53438;48.898;2.308;2023-06-04T06:23:13;17.89;48.25
66582;SHT31;53438;48.898;2.308;2023-06-04T06:25:39;17.91;48.06
66582;SHT31;53438;48.898;2.308;2023-06-04T06:28:10;18.16;47.68
66582;SHT31;53438;48.898;2.308;2023-06-04T06:30:37;18.26;47.21
66582;SHT31;53438;48.898;2.308;2023-06-04T06:33:02;18.24;46.80
66582;SHT31;53438;48.898;2.308;2023-06-04T06:35:28;18.20;46.91
66582;SHT31;53438;48.898;2.308;2023-06-04T06:37:53;18.23;46.85
66582;SHT31;53438;48.898;2.308;2023-06-04T06:40:19;18.10;46.86
66582;SHT31;53438;48.898;2.308;2023-06-04T06:42:48;18.10;47.13
66582;SHT31;53438;48.898;2.308;2023-06-04T06:45:15;18.17;47.11
66582;SHT31;53438;48.898;2.308;2023-06-04T06:47:40;18.23;47.10
66582;SHT31;53438;48.898;2.308;2023-06-04T06:50:06;18.07;47.30
66582;SHT31;53438;48.898;2.308;2023-06-04T06:52:31;18.28;47.18
66582;SHT31;53438;48.898;2.308;2023-06-04T06:54:57;18.27;47.35
66582;SHT31;53438;48.898;2.308;2023-06-04T06:57:22;18.38;47.22
66582;SHT31;53438;48.898;2.308;2023-06-04T06:59:47;18.45;47.00
66582;SHT31;53438;48.898;2.308;2023-06-04T07:02:13;18.64;46.93
66582;SHT31;53438;48.898;2.308;2023-06-04T07:04:38;18.85;46.63
66582;SHT31;53438;48.898;2.308;2023-06-04T07:07:04;18.69;46.98
66582;SHT31;53438;48.898;2.308;2023-06-04T07:09:29;18.78;46.66
66582;SHT31;53438;48.898;2.308;2023-06-04T07:11:54;19.13;46.19
66582;SHT31;53438;48.898;2.308;2023-06-04T07:14:20;19.23;46.13
66582;SHT31;53438;48.898;2.308;2023-06-04T07:16:45;19.23;46.36
66582;SHT31;53438;48.898;2.308;2023-06-04T07:19:11;19.46;45.72
66582;SHT31;53438;48.898;2.308;2023-06-04T07:21:36;19.36;45.85
66582;SHT31;53438;48.898;2.308;2023-06-04T07:24:01;19.47;45.83
66582;SHT31;53438;48.898;2.308;2023-06-04T07:26:27;19.56;45.68
66582;SHT31;53438;48.898;2.308;2023-06-04T07:28:55;19.56;45.31
66582;SHT31;53438;48.898;2.308;2023-06-04T07:31:22;19.66;45.23
66582;SHT31;53438;48.898;2.308;2023-06-04T07:33:47;19.71;45.25
66582;SHT31;53438;48.898;2.308;2023-06-04T07:36:13;19.92;44.75
66582;SHT31;53438;48.898;2.308;2023-06-04T07:38:39;19.75;44.54
66582;SHT31;53438;48.898;2.308;2023-06-04T07:41:04;19.84;44.51
66582;SHT31;53438;48.898;2.308;2023-06-04T07:43:29;20.08;44.24
66582;SHT31;53438;48.898;2.308;2023-06-04T07:45:55;20.24;44.27
66582;SHT31;53438;48.898;2.308;2023-06-04T07:48:20;20.57;43.59
66582;SHT31;53438;48.898;2.308;2023-06-04T07:50:46;20.66;43.11
66582;SHT31;53438;48.898;2.308;2023-06-04T07:53:11;20.77;43.22
66582;SHT31;53438;48.898;2.308;2023-06-04T07:55:36;20.97;43.00
66582;SHT31;53438;48.898;2.308;2023-06-04T07:58:02;20.88;42.75
66582;SHT31;53438;48.898;2.308;2023-06-04T08:00:27;20.86;42.70
66582;SHT31;53438;48.898;2.308;2023-06-04T08:02:52;20.94;42.39
66582;SHT31;53438;48.898;2.308;2023-06-04T08:05:18;20.72;42.79
66582;SHT31;53438;48.898;2.308;2023-06-04T08:07:45;20.65;43.17
66582;SHT31;53438;48.898;2.308;2023-06-04T08:10:11;21.07;42.90
66582;SHT31;53438;48.898;2.308;2023-06-04T08:12:37;21.21;42.55
66582;SHT31;53438;48.898;2.308;2023-06-04T08:15:02;21.25;42.86
66582;SHT31;53438;48.898;2.308;2023-06-04T08:17:28;21.31;42.80
66582;SHT31;53438;48.898;2.308;2023-06-04T08:19:55;21.34;43.04
66582;SHT31;53438;48.898;2.308;2023-06-04T08:22:21;21.52;42.48
66582;SHT31;53438;48.898;2.308;2023-06-04T08:24:46;21.35;43.06
66582;SHT31;53438;48.898;2.308;2023-06-04T08:27:12;20.84;44.20
66582;SHT31;53438;48.898;2.308;2023-06-04T08:29:37;20.49;44.79
66582;SHT31;53438;48.898;2.308;2023-06-04T08:32:04;20.52;44.95
66582;SHT31;53438;48.898;2.308;2023-06-04T08:34:30;20.81;44.66
66582;SHT31;53438;48.898;2.308;2023-06-04T08:36:57;21.28;43.76
66582;SHT31;53438;48.898;2.308;2023-06-04T08:39:22;21.75;42.67
66582;SHT31;53438;48.898;2.308;2023-06-04T08:41:52;21.95;41.85
66582;SHT31;53438;48.898;2.308;2023-06-04T08:44:19;21.83;41.84
66582;SHT31;53438;48.898;2.308;2023-06-04T08:46:47;22.00;41.82
66582;SHT31;53438;48.898;2.308;2023-06-04T08:49:16;22.30;41.27
66582;SHT31;53438;48.898;2.308;2023-06-04T08:51:43;22.41;41.00
66582;SHT31;53438;48.898;2.308;2023-06-04T08:54:09;22.33;40.60
66582;SHT31;53438;48.898;2.308;2023-06-04T08:56:35;22.51;39.99
66582;SHT31;53438;48.898;2.308;2023-06-04T08:59:05;22.44;40.46
66582;SHT31;53438;48.898;2.308;2023-06-04T09:01:35;22.61;39.98
66582;SHT31;53438;48.898;2.308;2023-06-04T09:04:04;22.81;39.88
66582;SHT31;53438;48.898;2.308;2023-06-04T09:06:32;22.78;39.24
66582;SHT31;53438;48.898;2.308;2023-06-04T09:08:58;22.87;38.92
66582;SHT31;53438;48.898;2.308;2023-06-04T09:11:33;22.94;38.05
66582;SHT31;53438;48.898;2.308;2023-06-04T09:14:01;23.08;37.64
66582;SHT31;53438;48.898;2.308;2023-06-04T09:16:28;23.16;37.54
66582;SHT31;53438;48.898;2.308;2023-06-04T09:19:02;23.23;36.50
66582;SHT31;53438;48.898;2.308;2023-06-04T09:21:27;23.06;36.82
66582;SHT31;53438;48.898;2.308;2023-06-04T09:23:52;23.23;37.11
66582;SHT31;53438;48.898;2.308;2023-06-04T09:26:18;23.45;36.46
66582;SHT31;53438;48.898;2.308;2023-06-04T09:28:45;23.27;35.34
66582;SHT31;53438;48.898;2.308;2023-06-04T09:31:15;23.30;35.80
66582;SHT31;53438;48.898;2.308;2023-06-04T09:33:48;23.42;35.14
66582;SHT31;53438;48.898;2.308;2023-06-04T09:36:14;23.46;34.43
66582;SHT31;53438;48.898;2.308;2023-06-04T09:38:40;23.38;34.49
66582;SHT31;53438;48.898;2.308;2023-06-04T09:41:16;23.53;34.35
66582;SHT31;53438;48.898;2.308;2023-06-04T09:43:46;23.50;34.10
66582;SHT31;53438;48.898;2.308;2023-06-04T09:46:16;23.33;33.52
66582;SHT31;53438;48.898;2.308;2023-06-04T09:48:42;23.45;33.52
66582;SHT31;53438;48.898;2.308;2023-06-04T09:51:10;23.63;33.63
66582;SHT31;53438;48.898;2.308;2023-06-04T09:53:35;23.73;32.25
66582;SHT31;53438;48.898;2.308;2023-06-04T09:56:02;23.57;32.32
66582;SHT31;53438;48.898;2.308;2023-06-04T09:58:29;23.57;32.60
66582;SHT31;53438;48.898;2.308;2023-06-04T10:00:56;23.66;31.52
66582;SHT31;53438;48.898;2.308;2023-06-04T10:03:24;23.56;31.40
66582;SHT31;53438;48.898;2.308;2023-06-04T10:05:52;23.71;31.44
66582;SHT31;53438;48.898;2.308;2023-06-04T10:08:22;23.49;32.12
66582;SHT31;53438;48.898;2.308;2023-06-04T10:10:49;23.63;32.44
66582;SHT31;53438;48.898;2.308;2023-06-04T10:13:19;23.77;32.11
66582;SHT31;53438;48.898;2.308;2023-06-04T10:15:46;23.77;32.36
66582;SHT31;53438;48.898;2.308;2023-06-04T10:18:13;23.80;32.53
66582;SHT31;53438;48.898;2.308;2023-06-04T10:20:40;23.90;31.57
66582;SHT31;53438;48.898;2.308;2023-06-04T10:23:06;23.91;31.96
66582;SHT31;53438;48.898;2.308;2023-06-04T10:25:34;24.05;32.36
66582;SHT31;53438;48.898;2.308;2023-06-04T10:28:03;24.11;32.74
66582;SHT31;53438;48.898;2.308;2023-06-04T10:30:32;24.07;32.36
66582;SHT31;53438;48.898;2.308;2023-06-04T10:32:58;24.15;32.38
66582;SHT31;53438;48.898;2.308;2023-06-04T10:35:33;23.98;33.11
66582;SHT31;53438;48.898;2.308;2023-06-04T10:38:09;24.04;33.08
66582;SHT31;53438;48.898;2.308;2023-06-04T10:40:35;24.05;33.48
66582;SHT31;53438;48.898;2.308;2023-06-04T10:43:05;24.18;32.91
66582;SHT31;53438;48.898;2.308;2023-06-04T10:45:31;24.22;33.26
66582;SHT31;53438;48.898;2.308;2023-06-04T10:48:03;24.31;33.42
66582;SHT31;53438;48.898;2.308;2023-06-04T10:50:29;24.28;32.18
66582;SHT31;53438;48.898;2.308;2023-06-04T10:52:55;24.32;32.05
66582;SHT31;53438;48.898;2.308;2023-06-04T10:55:23;24.22;31.17
66582;SHT31;53438;48.898;2.308;2023-06-04T10:57:55;24.21;31.45
66582;SHT31;53438;48.898;2.308;2023-06-04T11:00:21;24.21;31.89
66582;SHT31;53438;48.898;2.308;2023-06-04T11:02:56;24.32;32.23
66582;SHT31;53438;48.898;2.308;2023-06-04T11:05:22;24.21;32.18
66582;SHT31;53438;48.898;2.308;2023-06-04T11:07:58;24.32;32.15
66582;SHT31;53438;48.898;2.308;2023-06-04T11:10:31;24.48;30.39
66582;SHT31;53438;48.898;2.308;2023-06-04T11:12:58;24.41;29.95
66582;SHT31;53438;48.898;2.308;2023-06-04T11:15:23;24.45;30.68
66582;SHT31;53438;48.898;2.308;2023-06-04T11:17:55;24.48;31.21
66582;SHT31;53438;48.898;2.308;2023-06-04T11:20:23;24.66;31.36
66582;SHT31;53438;48.898;2.308;2023-06-04T11:22:55;24.84;31.12
66582;SHT31;53438;48.898;2.308;2023-06-04T11:25:23;24.84;31.54
66582;SHT31;53438;48.898;2.308;2023-06-04T11:27:49;24.63;32.03
66582;SHT31;53438;48.898;2.308;2023-06-04T11:30:15;24.80;31.70
66582;SHT31;53438;48.898;2.308;2023-06-04T11:32:41;25.06;31.29
66582;SHT31;53438;48.898;2.308;2023-06-04T11:35:07;25.11;30.21
66582;SHT31;53438;48.898;2.308;2023-06-04T11:37:32;25.09;30.01
66582;SHT31;53438;48.898;2.308;2023-06-04T11:39:58;25.02;29.06
66582;SHT31;53438;48.898;2.308;2023-06-04T11:42:27;24.84;29.41
66582;SHT31;53438;48.898;2.308;2023-06-04T11:44:58;24.61;30.25
66582;SHT31;53438;48.898;2.308;2023-06-04T11:47:24;24.91;29.99
66582;SHT31;53438;48.898;2.308;2023-06-04T11:49:57;24.94;30.54
66582;SHT31;53438;48.898;2.308;2023-06-04T11:52:23;24.97;30.41
66582;SHT31;53438;48.898;2.308;2023-06-04T11:54:48;24.87;31.08
66582;SHT31;53438;48.898;2.308;2023-06-04T11:57:14;24.69;31.23
66582;SHT31;53438;48.898;2.308;2023-06-04T11:59:40;24.84;30.29
66582;SHT31;53438;48.898;2.308;2023-06-04T12:02:07;25.09;29.63
66582;SHT31;53438;48.898;2.308;2023-06-04T12:04:33;24.90;29.33
66582;SHT31;53438;48.898;2.308;2023-06-04T12:07:00;25.10;29.70
66582;SHT31;53438;48.898;2.308;2023-06-04T12:09:28;25.06;29.48
66582;SHT31;53438;48.898;2.308;2023-06-04T12:12:00;25.06;30.01
66582;SHT31;53438;48.898;2.308;2023-06-04T12:14:26;25.07;30.37
66582;SHT31;53438;48.898;2.308;2023-06-04T12:17:08;24.97;30.05
66582;SHT31;53438;48.898;2.308;2023-06-04T12:19:46;25.11;30.44
66582;SHT31;53438;48.898;2.308;2023-06-04T12:22:12;25.14;30.23
66582;SHT31;53438;48.898;2.308;2023-06-04T12:24:57;25.11;30.45
66582;SHT31;53438;48.898;2.308;2023-06-04T12:27:24;25.06;30.22
66582;SHT31;53438;48.898;2.308;2023-06-04T12:30:03;24.91;31.21
66582;SHT31;53438;48.898;2.308;2023-06-04T12:32:30;24.99;31.50
66582;SHT31;53438;48.898;2.308;2023-06-04T12:34:56;25.17;31.15
66582;SHT31;53438;48.898;2.308;2023-06-04T12:37:22;25.13;31.25
66582;SHT31;53438;48.898;2.308;2023-06-04T12:39:48;25.23;31.30
66582;SHT31;53438;48.898;2.308;2023-06-04T12:42:13;25.17;31.21
66582;SHT31;53438;48.898;2.308;2023-06-04T12:44:39;25.16;31.02
66582;SHT31;53438;48.898;2.308;2023-06-04T12:47:06;25.11;31.18
66582;SHT31;53438;48.898;2.308;2023-06-04T12:49:32;24.89;31.00
66582;SHT31;53438;48.898;2.308;2023-06-04T12:51:57;25.02;31.04
66582;SHT31;53438;48.898;2.308;2023-06-04T12:54:23;25.00;31.02
66582;SHT31;53438;48.898;2.308;2023-06-04T12:56:49;25.11;31.23
66582;SHT31;53438;48.898;2.308;2023-06-04T12:59:14;25.20;31.85
66582;SHT31;53438;48.898;2.308;2023-06-04T13:01:40;25.30;31.11
66582;SHT31;53438;48.898;2.308;2023-06-04T13:04:06;25.23;30.33
66582;SHT31;53438;48.898;2.308;2023-06-04T13:06:33;25.23;30.71
66582;SHT31;53438;48.898;2.308;2023-06-04T13:08:58;25.23;31.36
66582;SHT31;53438;48.898;2.308;2023-06-04T13:11:24;25.10;31.52
66582;SHT31;53438;48.898;2.308;2023-06-04T13:13:49;25.11;31.56
66582;SHT31;53438;48.898;2.308;2023-06-04T13:16:15;25.04;30.90
66582;SHT31;53438;48.898;2.308;2023-06-04T13:18:40;25.17;30.47
66582;SHT31;53438;48.898;2.308;2023-06-04T13:21:05;25.26;30.79
66582;SHT31;53438;48.898;2.308;2023-06-04T13:23:31;25.37;29.32
66582;SHT31;53438;48.898;2.308;2023-06-04T13:25:56;25.31;26.89
66582;SHT31;53438;48.898;2.308;2023-06-04T13:28:21;25.21;28.75
66582;SHT31;53438;48.898;2.308;2023-06-04T13:30:47;25.28;28.92
66582;SHT31;53438;48.898;2.308;2023-06-04T13:33:13;25.40;28.71
66582;SHT31;53438;48.898;2.308;2023-06-04T13:35:38;25.27;28.95
66582;SHT31;53438;48.898;2.308;2023-06-04T13:38:04;25.14;29.22
66582;SHT31;53438;48.898;2.308;2023-06-04T13:40:31;25.23;29.44
66582;SHT31;53438;48.898;2.308;2023-06-04T13:42:56;25.14;28.94
66582;SHT31;53438;48.898;2.308;2023-06-04T13:45:22;25.16;29.33
66582;SHT31;53438;48.898;2.308;2023-06-04T13:47:48;25.21;28.78
66582;SHT31;53438;48.898;2.308;2023-06-04T13:50:14;25.31;28.93
66582;SHT31;53438;48.898;2.308;2023-06-04T13:52:39;25.51;28.72
66582;SHT31;53438;48.898;2.308;2023-06-04T13:55:05;25.58;28.49
66582;SHT31;53438;48.898;2.308;2023-06-04T13:57:31;25.68;27.43
66582;SHT31;53438;48.898;2.308;2023-06-04T13:59:56;25.68;27.14
66582;SHT31;53438;48.898;2.308;2023-06-04T14:02:22;25.78;27.52
66582;SHT31;53438;48.898;2.308;2023-06-04T14:04:48;25.81;27.40
66582;SHT31;53438;48.898;2.308;2023-06-04T14:07:14;25.90;27.16
66582;SHT31;53438;48.898;2.308;2023-06-04T14:09:39;25.95;27.04
66582;SHT31;53438;48.898;2.308;2023-06-04T14:12:05;25.95;27.43
66582;SHT31;53438;48.898;2.308;2023-06-04T14:14:31;26.09;27.69
66582;SHT31;53438;48.898;2.308;2023-06-04T14:17:01;26.15;27.44
66582;SHT31;53438;48.898;2.308;2023-06-04T14:19:27;26.23;27.24
66582;SHT31;53438;48.898;2.308;2023-06-04T14:21:53;26.41;26.30
66582;SHT31;53438;48.898;2.308;2023-06-04T14:24:18;26.39;26.87
66582;SHT31;53438;48.898;2.308;2023-06-04T14:26:44;26.54;26.35
66582;SHT31;53438;48.898;2.308;2023-06-04T14:29:09;26.41;26.54
66582;SHT31;53438;48.898;2.308;2023-06-04T14:31:35;26.49;26.10
66582;SHT31;53438;48.898;2.308;2023-06-04T14:34:00;26.49;25.90
66582;SHT31;53438;48.898;2.308;2023-06-04T14:36:26;26.44;26.31
66582;SHT31;53438;48.898;2.308;2023-06-04T14:38:51;26.43;26.45
66582;SHT31;53438;48.898;2.308;2023-06-04T14:41:16;26.63;26.49
66582;SHT31;53438;48.898;2.308;2023-06-04T14:43:42;26.78;26.38
66582;SHT31;53438;48.898;2.308;2023-06-04T14:46:07;26.68;25.97
66582;SHT31;53438;48.898;2.308;2023-06-04T14:48:32;26.73;25.45
66582;SHT31;53438;48.898;2.308;2023-06-04T14:50:58;26.76;25.57
66582;SHT31;53438;48.898;2.308;2023-06-04T14:53:23;26.92;25.63
66582;SHT31;53438;48.898;2.308;2023-06-04T14:55:48;26.87;25.26
66582;SHT31;53438;48.898;2.308;2023-06-04T14:58:14;27.04;24.87
66582;SHT31;53438;48.898;2.308;2023-06-04T15:00:41;27.18;24.85
66582;SHT31;53438;48.898;2.308;2023-06-04T15:03:07;27.04;24.34
66582;SHT31;53438;48.898;2.308;2023-06-04T15:05:32;27.21;24.88
66582;SHT31;53438;48.898;2.308;2023-06-04T15:07:58;27.36;24.60
66582;SHT31;53438;48.898;2.308;2023-06-04T15:10:25;27.21;25.12
66582;SHT31;53438;48.898;2.308;2023-06-04T15:12:52;27.39;25.21
66582;SHT31;53438;48.898;2.308;2023-06-04T15:15:17;27.29;24.92
66582;SHT31;53438;48.898;2.308;2023-06-04T15:17:42;27.29;25.03
66582;SHT31;53438;48.898;2.308;2023-06-04T15:20:08;27.52;26.10
66582;SHT31;53438;48.898;2.308;2023-06-04T15:22:33;27.63;26.32
66582;SHT31;53438;48.898;2.308;2023-06-04T15:24:59;27.82;26.15
66582;SHT31;53438;48.898;2.308;2023-06-04T15:27:25;27.67;25.45
66582;SHT31;53438;48.898;2.308;2023-06-04T15:29:50;27.53;25.09
66582;SHT31;53438;48.898;2.308;2023-06-04T15:32:17;27.38;25.18
66582;SHT31;53438;48.898;2.308;2023-06-04T15:34:42;27.32;25.54
66582;SHT31;53438;48.898;2.308;2023-06-04T15:37:07;27.48;25.83
66582;SHT31;53438;48.898;2.308;2023-06-04T15:39:33;27.70;25.85
66582;SHT31;53438;48.898;2.308;2023-06-04T15:41:58;27.76;25.88
66582;SHT31;53438;48.898;2.308;2023-06-04T15:44:24;27.77;25.60
66582;SHT31;53438;48.898;2.308;2023-06-04T15:46:49;27.74;26.05
66582;SHT31;53438;48.898;2.308;2023-06-04T15:49:15;27.89;25.83
66582;SHT31;53438;48.898;2.308;2023-06-04T15:51:42;27.97;25.40
66582;SHT31;53438;48.898;2.308;2023-06-04T15:54:07;28.01;25.62
66582;SHT31;53438;48.898;2.308;2023-06-04T15:56:33;27.77;26.23
66582;SHT31;53438;48.898;2.308;2023-06-04T15:58:58;28.11;26.09
66582;SHT31;53438;48.898;2.308;2023-06-04T16:01:23;27.77;26.72
66582;SHT31;53438;48.898;2.308;2023-06-04T16:03:50;27.50;27.23
66582;SHT31;53438;48.898;2.308;2023-06-04T16:06:17;27.46;27.42
66582;SHT31;53438;48.898;2.308;2023-06-04T16:08:42;27.48;27.69
66582;SHT31;53438;48.898;2.308;2023-06-04T16:11:08;27.29;27.29
66582;SHT31;53438;48.898;2.308;2023-06-04T16:13:33;27.25;27.22
66582;SHT31;53438;48.898;2.308;2023-06-04T16:15:58;26.99;27.69
66582;SHT31;53438;48.898;2.308;2023-06-04T16:18:27;26.88;28.03
66582;SHT31;53438;48.898;2.308;2023-06-04T16:20:53;26.73;28.50
66582;SHT31;53438;48.898;2.308;2023-06-04T16:23:18;26.64;28.84
66582;SHT31;53438;48.898;2.308;2023-06-04T16:25:44;26.46;28.56
66582;SHT31;53438;48.898;2.308;2023-06-04T16:28:10;26.49;28.28
66582;SHT31;53438;48.898;2.308;2023-06-04T16:30:35;26.37;28.70
66582;SHT31;53438;48.898;2.308;2023-06-04T16:33:00;26.37;29.10
66582;SHT31;53438;48.898;2.308;2023-06-04T16:35:26;26.32;29.53
66582;SHT31;53438;48.898;2.308;2023-06-04T16:37:53;26.23;29.68
66582;SHT31;53438;48.898;2.308;2023-06-04T16:40:18;26.08;30.19
66582;SHT31;53438;48.898;2.308;2023-06-04T16:42:44;26.08;30.23
66582;SHT31;53438;48.898;2.308;2023-06-04T16:45:10;26.18;29.74
66582;SHT31;53438;48.898;2.308;2023-06-04T16:47:36;26.05;30.15
66582;SHT31;53438;48.898;2.308;2023-06-04T16:50:03;26.06;30.02
66582;SHT31;53438;48.898;2.308;2023-06-04T16:52:29;26.12;29.94
66582;SHT31;53438;48.898;2.308;2023-06-04T16:54:56;26.10;30.30
66582;SHT31;53438;48.898;2.308;2023-06-04T16:57:21;25.90;30.55
66582;SHT31;53438;48.898;2.308;2023-06-04T16:59:47;25.86;30.83
66582;SHT31;53438;48.898;2.308;2023-06-04T17:02:13;25.89;30.85
66582;SHT31;53438;48.898;2.308;2023-06-04T17:04:41;25.84;30.98
66582;SHT31;53438;48.898;2.308;2023-06-04T17:07:07;25.81;30.92
66582;SHT31;53438;48.898;2.308;2023-06-04T17:09:32;25.75;31.06
66582;SHT31;53438;48.898;2.308;2023-06-04T17:11:58;25.75;30.55
66582;SHT31;53438;48.898;2.308;2023-06-04T17:14:24;25.69;30.88
66582;SHT31;53438;48.898;2.308;2023-06-04T17:16:49;25.72;31.23
66582;SHT31;53438;48.898;2.308;2023-06-04T17:19:15;25.67;31.42
66582;SHT31;53438;48.898;2.308;2023-06-04T17:21:40;25.68;31.38
66582;SHT31;53438;48.898;2.308;2023-06-04T17:24:07;25.65;31.60
66582;SHT31;53438;48.898;2.308;2023-06-04T17:26:32;25.58;31.68
66582;SHT31;53438;48.898;2.308;2023-06-04T17:28:58;25.58;31.51
66582;SHT31;53438;48.898;2.308;2023-06-04T17:31:24;25.55;31.68
66582;SHT31;53438;48.898;2.308;2023-06-04T17:33:50;25.47;31.80
66582;SHT31;53438;48.898;2.308;2023-06-04T17:36:16;25.51;31.67
66582;SHT31;53438;48.898;2.308;2023-06-04T17:38:41;25.41;31.91
66582;SHT31;53438;48.898;2.308;2023-06-04T17:41:07;25.42;31.88
66582;SHT31;53438;48.898;2.308;2023-06-04T17:43:32;25.54;31.96
66582;SHT31;53438;48.898;2.308;2023-06-04T17:45:58;25.51;31.76
66582;SHT31;53438;48.898;2.308;2023-06-04T17:48:23;25.45;31.90
66582;SHT31;53438;48.898;2.308;2023-06-04T17:50:49;25.47;32.22
66582;SHT31;53438;48.898;2.308;2023-06-04T17:53:14;25.38;32.03
66582;SHT31;53438;48.898;2.308;2023-06-04T17:55:40;25.41;31.88
66582;SHT31;53438;48.898;2.308;2023-06-04T17:58:05;25.20;32.26
66582;SHT31;53438;48.898;2.308;2023-06-04T18:00:31;25.24;32.40
66582;SHT31;53438;48.898;2.308;2023-06-04T18:02:56;25.26;32.35
66582;SHT31;53438;48.898;2.308;2023-06-04T18:05:21;25.09;32.67
66582;SHT31;53438;48.898;2.308;2023-06-04T18:07:47;25.13;32.70
66582;SHT31;53438;48.898;2.308;2023-06-04T18:10:12;25.07;32.71
66582;SHT31;53438;48.898;2.308;2023-06-04T18:12:39;24.96;32.92
66582;SHT31;53438;48.898;2.308;2023-06-04T18:15:05;24.97;32.80
66582;SHT31;53438;48.898;2.308;2023-06-04T18:17:31;24.97;32.55
66582;SHT31;53438;48.898;2.308;2023-06-04T18:19:56;25.09;32.36
66582;SHT31;53438;48.898;2.308;2023-06-04T18:22:22;24.94;32.67
66582;SHT31;53438;48.898;2.308;2023-06-04T18:24:47;24.89;32.81
66582;SHT31;53438;48.898;2.308;2023-06-04T18:27:12;24.99;32.77